Time;durP1;ratioP1;P1;durP2;ratioP2;P2;SDS_P1;SDS_P2;PMS_P1;PMS_P2;Temp;Humidity;BMP_temperature;BMP_pressure;BME280_temperature;BME280_humidity;BME280_pressure;Samples;Min_cycle;Max_cycle;Signal;HPM_P1;HPM_P2
2021/03/31 00:02:12;;;;;;;;;;;;;;;2.12;57.40;101653.00;1783002;80;20210;-72
2021/03/31 00:04:42;;;;;;;;;;;;;;;2.08;57.61;101648.77;1784784;80;20242;-71
2021/03/31 00:07:10;;;;;;;;;;;;;;;2.05;57.81;101649.30;1784841;80;20701;-71
2021/03/31 00:09:41;;;;;;;;;;;;;;;1.98;57.99;101656.39;1783030;79;22141;-71
2021/03/31 00:12:10;;;;;;;;;;;;;;;1.91;58.19;101651.77;1784009;80;20374;-72
2021/03/31 00:14:39;;;;;;;;;;;;;;;1.86;58.33;101647.13;1772919;79;20513;-71
2021/03/31 00:17:07;;;;;;;;;;;;;;;1.82;58.45;101651.12;1778183;80;20258;-73
2021/03/31 00:19:36;;;;;;;;;;;;;;;1.78;58.60;101649.05;1759868;80;20194;-72
2021/03/31 00:22:04;;;;;;;;;;;;;;;1.73;58.75;101646.52;1751125;80;21881;-72
2021/03/31 00:24:32;;;;;;;;;;;;;;;1.70;58.91;101640.54;1766255;79;21204;-72
2021/03/31 00:26:59;;;;;;;;;;;;;;;1.68;59.11;101646.23;1770633;81;20220;-72
2021/03/31 00:29:27;;;;;;;;;;;;;;;1.62;59.30;101640.70;1789765;79;20266;-72
2021/03/31 00:31:54;;;;;;;;;;;;;;;1.60;59.47;101641.19;1800335;79;20217;-72
2021/03/31 00:34:22;;;;;;;;;;;;;;;1.57;59.65;101635.20;1794835;79;22018;-71
2021/03/31 00:36:50;;;;;;;;;;;;;;;1.53;59.85;101634.39;1792954;79;20388;-71
2021/03/31 00:39:18;;;;;;;;;;;;;;;1.51;60.01;101640.53;1779162;79;20228;-71
2021/03/31 00:41:46;;;;;;;;;;;;;;;1.49;60.15;101636.66;1798548;79;20221;-71
2021/03/31 00:44:14;;;;;;;;;;;;;;;1.46;60.24;101628.94;1800199;79;20226;-71
2021/03/31 00:46:42;;;;;;;;;;;;;;;1.43;60.36;101630.28;1792259;78;21911;-71
2021/03/31 00:49:10;;;;;;;;;;;;;;;1.41;60.38;101634.22;1796367;78;21113;-72
2021/03/31 00:51:37;;;;;;;;;;;;;;;1.39;60.49;101630.80;1798594;79;20215;-72
2021/03/31 00:54:06;;;;;;;;;;;;;;;1.37;60.55;101622.63;1801545;79;20238;-71
2021/03/31 00:56:33;;;;;;;;;;;;;;;1.32;60.62;101621.40;1797771;79;20216;-71
2021/03/31 00:59:01;;;;;;;;;;;;;;;1.30;60.69;101626.23;1794791;79;22661;-72
2021/03/31 01:01:28;;;;;;;;;;;;;;;1.27;60.73;101617.20;1796496;78;21273;-73
2021/03/31 01:03:56;;;;;;;;;;;;;;;1.26;60.84;101611.59;1793700;78;20222;-72
2021/03/31 01:06:24;;;;;;;;;;;;;;;1.24;60.92;101617.24;1793581;79;20263;-72
2021/03/31 01:08:51;;;;;;;;;;;;;;;1.22;60.99;101613.37;1789972;78;20285;-72
2021/03/31 01:11:37;;;;;;;;;;;;;;;1.19;61.11;101610.84;1793446;79;22970;-72
2021/03/31 01:14:27;;;;;;;;;;;;;;;1.17;61.18;101611.78;1790484;79;20459;-72
2021/03/31 01:16:57;;;;;;;;;;;;;;;1.14;61.26;101612.23;1771659;79;20238;-72
2021/03/31 01:19:51;;;;;;;;;;;;;;;1.13;61.35;101614.87;1800290;78;21135;-72
2021/03/31 01:22:41;;;;;;;;;;;;;;;1.09;61.44;101614.53;1773021;79;20214;-71
2021/03/31 01:25:21;;;;;;;;;;;;;;;1.05;61.49;101615.02;1800176;78;22030;-72
2021/03/31 01:28:15;;;;;;;;;;;;;;;1.03;61.54;101616.80;1781441;79;20257;-72
2021/03/31 01:31:00;;;;;;;;;;;;;;;1.01;61.61;101617.28;1788472;78;20217;-71
2021/03/31 01:33:49;;;;;;;;;;;;;;;0.99;61.68;101612.56;1793073;79;20332;-71
2021/03/31 01:36:17;;;;;;;;;;;;;;;0.96;61.78;101613.89;1798625;79;20386;-71
2021/03/31 01:38:48;;;;;;;;;;;;;;;0.92;61.89;101613.56;1798281;79;22082;-70
2021/03/31 01:41:16;;;;;;;;;;;;;;;0.90;61.97;101610.14;1801247;78;20375;-71
2021/03/31 01:43:49;;;;;;;;;;;;;;;0.89;62.01;101609.73;1795791;79;20271;-71
2021/03/31 01:46:19;;;;;;;;;;;;;;;0.89;62.10;101611.47;1800678;79;20226;-71
2021/03/31 01:48:47;;;;;;;;;;;;;;;0.88;62.15;101604.12;1801277;78;20231;-71
2021/03/31 01:51:14;;;;;;;;;;;;;;;0.89;62.21;101602.38;1801453;79;21952;-71
2021/03/31 01:53:43;;;;;;;;;;;;;;;0.89;62.28;101599.77;1760626;81;20245;-72
2021/03/31 01:56:10;;;;;;;;;;;;;;;0.89;62.37;101603.23;1784933;78;20213;-72
2021/03/31 01:58:38;;;;;;;;;;;;;;;0.90;62.39;101598.43;1795774;79;20323;-72
2021/03/31 02:01:06;;;;;;;;;;;;;;;0.91;62.46;101602.75;1798803;79;20881;-72
2021/03/31 02:03:34;;;;;;;;;;;;;;;0.91;62.52;101597.98;1764172;79;22061;-71
2021/03/31 02:06:01;;;;;;;;;;;;;;;0.91;62.60;101591.48;1799534;79;20352;-70
2021/03/31 02:08:28;;;;;;;;;;;;;;;0.90;62.62;101590.63;1796628;79;20214;-71
2021/03/31 02:10:58;;;;;;;;;;;;;;;0.91;62.65;101587.14;1777148;78;21115;-71
2021/03/31 02:13:25;;;;;;;;;;;;;;;0.90;62.67;101585.42;1790874;79;20696;-71
2021/03/31 02:15:55;;;;;;;;;;;;;;;0.91;62.71;101588.44;1756701;79;21657;-71
2021/03/31 02:18:24;;;;;;;;;;;;;;;0.92;62.70;101585.39;1797299;79;20265;-71
2021/03/31 02:20:52;;;;;;;;;;;;;;;0.91;62.70;101585.84;1761615;79;20486;-72
2021/03/31 02:23:21;;;;;;;;;;;;;;;0.90;62.70;101582.83;1801708;79;21024;-71
2021/03/31 02:25:48;;;;;;;;;;;;;;;0.90;62.70;101581.53;1791220;78;20218;-72
2021/03/31 02:28:15;;;;;;;;;;;;;;;0.90;62.72;101580.67;1782597;79;22029;-71
2021/03/31 02:30:43;;;;;;;;;;;;;;;0.89;62.74;101577.22;1782309;80;20978;-71
2021/03/31 02:33:11;;;;;;;;;;;;;;;0.89;62.73;101571.16;1788015;79;20214;-71
2021/03/31 02:35:42;;;;;;;;;;;;;;;0.85;62.75;101571.64;1786922;80;20547;-71
2021/03/31 02:38:13;;;;;;;;;;;;;;;0.82;62.76;101565.21;1786535;80;20218;-71
2021/03/31 02:40:42;;;;;;;;;;;;;;;0.80;62.82;101565.25;1762081;80;21903;-71
2021/03/31 02:43:11;;;;;;;;;;;;;;;0.78;62.85;101565.73;1759659;80;20303;-72
2021/03/31 02:45:39;;;;;;;;;;;;;;;0.75;62.94;101563.61;1744382;81;20255;-72
2021/03/31 02:48:08;;;;;;;;;;;;;;;0.72;62.98;101563.69;1779949;80;20307;-72
2021/03/31 02:50:36;;;;;;;;;;;;;;;0.68;63.04;101564.20;1787857;80;20485;-72
2021/03/31 02:53:06;;;;;;;;;;;;;;;0.67;63.10;101565.50;1787760;80;22081;-72
2021/03/31 02:55:35;;;;;;;;;;;;;;;0.69;63.12;101568.95;1786358;80;20389;-72
2021/03/31 02:58:03;;;;;;;;;;;;;;;0.66;63.16;101558.15;1793353;78;20492;-72
2021/03/31 03:00:31;;;;;;;;;;;;;;;0.63;63.16;101558.66;1766147;80;21203;-72
2021/03/31 03:02:58;;;;;;;;;;;;;;;0.61;63.19;101561.30;1777173;80;20230;-72
2021/03/31 03:05:25;;;;;;;;;;;;;;;0.58;63.24;101562.67;1775427;81;22036;-72
2021/03/31 03:07:53;;;;;;;;;;;;;;;0.55;63.34;101565.30;1775297;79;20221;-72
2021/03/31 03:10:21;;;;;;;;;;;;;;;0.50;63.44;101561.51;1782766;80;20281;-72
2021/03/31 03:12:52;;;;;;;;;;;;;;;0.46;63.53;101562.43;1773911;79;20531;-72
2021/03/31 03:15:20;;;;;;;;;;;;;;;0.43;63.61;101558.60;1784976;80;20397;-72
2021/03/31 03:17:49;;;;;;;;;;;;;;;0.40;63.69;101550.02;1765259;79;23136;-72
2021/03/31 03:20:17;;;;;;;;;;;;;;;0.37;63.77;101552.20;1782974;79;20229;-72
2021/03/31 03:22:50;;;;;;;;;;;;;;;0.36;63.84;101553.09;1733852;81;20220;-72
2021/03/31 03:25:19;;;;;;;;;;;;;;;0.35;63.96;101555.72;1771260;79;20440;-73
2021/03/31 03:27:47;;;;;;;;;;;;;;;0.33;64.11;101552.30;1770574;79;20220;-72
2021/03/31 03:30:17;;;;;;;;;;;;;;;0.31;64.26;101551.03;1795486;79;21895;-73
2021/03/31 03:32:47;;;;;;;;;;;;;;;0.31;64.33;101549.73;1800419;79;20306;-71
2021/03/31 03:35:22;;;;;;;;;;;;;;;0.32;64.47;101555.34;1796374;79;20281;-71
2021/03/31 03:37:50;;;;;;;;;;;;;;;0.32;64.58;101555.34;1798589;79;20471;-71
2021/03/31 03:40:18;;;;;;;;;;;;;;;0.32;64.69;101557.09;1800084;78;20238;-71
2021/03/31 03:42:45;;;;;;;;;;;;;;;0.32;64.82;101555.34;1796137;79;22784;-71
2021/03/31 03:45:14;;;;;;;;;;;;;;;0.33;64.94;101550.56;1800085;79;20238;-71
2021/03/31 03:47:42;;;;;;;;;;;;;;;0.32;65.07;101556.64;1801442;79;20285;-71
2021/03/31 03:50:11;;;;;;;;;;;;;;;0.32;65.16;101557.94;1775928;79;20482;-71
2021/03/31 03:52:39;;;;;;;;;;;;;;;0.33;65.31;101553.60;1801837;79;20400;-72
2021/03/31 03:55:08;;;;;;;;;;;;;;;0.35;65.39;101555.28;1799398;79;21908;-72
2021/03/31 03:57:36;;;;;;;;;;;;;;;0.37;65.43;101553.50;1792273;79;20253;-71
2021/03/31 04:00:07;;;;;;;;;;;;;;;0.38;65.51;101546.11;1793661;79;20242;-71
2021/03/31 04:02:37;;;;;;;;;;;;;;;0.42;65.52;101553.44;1791961;79;20314;-72
2021/03/31 04:05:06;;;;;;;;;;;;;;;0.46;65.57;101547.28;1796409;79;20265;-71
2021/03/31 04:07:33;;;;;;;;;;;;;;;0.47;65.59;101540.75;1793379;79;21289;-71
2021/03/31 04:10:04;;;;;;;;;;;;;;;0.50;65.68;101540.70;1795965;79;20301;-72
2021/03/31 04:12:33;;;;;;;;;;;;;;;0.55;65.68;101540.61;1790119;79;20249;-72
2021/03/31 04:15:04;;;;;;;;;;;;;;;0.60;65.74;101539.23;1795220;79;20824;-72
2021/03/31 04:17:32;;;;;;;;;;;;;;;0.62;65.80;101533.55;1796912;79;20467;-72
2021/03/31 04:19:59;;;;;;;;;;;;;;;0.66;65.77;101535.19;1790801;79;22078;-72
2021/03/31 04:22:27;;;;;;;;;;;;;;;0.68;65.67;101536.05;1796778;79;20264;-73
2021/03/31 04:24:55;;;;;;;;;;;;;;;0.70;65.62;101535.56;1797851;79;20276;-71
2021/03/31 04:27:23;;;;;;;;;;;;;;;0.72;65.62;101533.78;1792399;79;20443;-73
2021/03/31 04:29:50;;;;;;;;;;;;;;;0.75;65.62;101529.36;1796006;78;20774;-73
2021/03/31 04:32:18;;;;;;;;;;;;;;;0.78;65.66;101528.02;1795705;79;21897;-72
2021/03/31 04:34:46;;;;;;;;;;;;;;;0.83;65.68;101526.16;1797231;79;22061;-72
2021/03/31 04:37:14;;;;;;;;;;;;;;;0.89;65.69;101526.49;1797467;79;20209;-71
2021/03/31 04:39:42;;;;;;;;;;;;;;;0.96;65.65;101529.36;1801772;79;20534;-72
2021/03/31 04:42:10;;;;;;;;;;;;;;;1.01;65.58;101531.42;1797432;78;21070;-69
2021/03/31 04:44:37;;;;;;;;;;;;;;;1.06;65.42;101532.20;1797141;78;23058;-71
2021/03/31 04:47:06;;;;;;;;;;;;;;;1.08;65.37;101531.72;1795883;79;20540;-71
2021/03/31 04:49:34;;;;;;;;;;;;;;;1.14;65.25;101533.31;1801697;79;20221;-72
2021/03/31 04:52:06;;;;;;;;;;;;;;;1.21;65.14;101532.73;1797878;79;20288;-73
2021/03/31 04:54:33;;;;;;;;;;;;;;;1.29;64.98;101530.83;1795430;79;20407;-70
2021/03/31 04:57:00;;;;;;;;;;;;;;;1.35;64.72;101528.06;1795294;79;21897;-73
2021/03/31 04:59:27;;;;;;;;;;;;;;;1.40;64.60;101524.92;1799301;79;20221;-73
2021/03/31 05:01:56;;;;;;;;;;;;;;;1.45;64.58;101523.09;1773378;79;20225;-72
2021/03/31 05:04:24;;;;;;;;;;;;;;;1.51;64.54;101527.27;1786986;79;20695;-70
2021/03/31 05:06:53;;;;;;;;;;;;;;;1.56;64.35;101524.98;1799189;79;20218;-71
2021/03/31 05:09:20;;;;;;;;;;;;;;;1.64;64.24;101528.27;1797093;79;21892;-71
2021/03/31 05:11:48;;;;;;;;;;;;;;;1.70;63.96;101528.09;1796550;79;21381;-70
2021/03/31 05:14:15;;;;;;;;;;;;;;;1.78;63.90;101525.76;1797365;79;20213;-72
2021/03/31 05:16:45;;;;;;;;;;;;;;;1.87;63.63;101531.59;1789918;79;20236;-70
2021/03/31 05:19:13;;;;;;;;;;;;;;;1.95;63.40;101525.75;1793541;79;20289;-72
2021/03/31 05:21:40;;;;;;;;;;;;;;;2.03;63.26;101529.89;1798159;79;22085;-71
2021/03/31 05:24:09;;;;;;;;;;;;;;;2.10;63.05;101511.45;1797078;79;20395;-73
2021/03/31 05:26:36;;;;;;;;;;;;;;;2.19;62.81;101518.18;1795159;78;20285;-72
2021/03/31 05:29:06;;;;;;;;;;;;;;;2.27;62.56;101513.62;1782503;79;20491;-73
2021/03/31 05:31:33;;;;;;;;;;;;;;;2.35;62.27;101509.06;1791617;79;20289;-72
2021/03/31 05:34:01;;;;;;;;;;;;;;;2.42;62.10;101510.61;1792387;79;21967;-72
2021/03/31 05:36:28;;;;;;;;;;;;;;;2.49;61.80;101508.67;1788390;79;20370;-73
2021/03/31 05:38:56;;;;;;;;;;;;;;;2.56;61.75;101511.07;1786158;79;20229;-73
2021/03/31 05:41:25;;;;;;;;;;;;;;;2.65;61.67;101512.56;1790732;79;20230;-72
2021/03/31 05:43:53;;;;;;;;;;;;;;;2.75;61.58;101520.98;1792606;79;20218;-72
2021/03/31 05:46:21;;;;;;;;;;;;;;;2.83;61.46;101520.32;1799224;79;22842;-71
2021/03/31 05:48:49;;;;;;;;;;;;;;;2.92;61.33;101517.89;1795170;79;20469;-71
2021/03/31 05:51:16;;;;;;;;;;;;;;;3.00;61.13;101516.77;1789554;80;20214;-71
2021/03/31 05:53:44;;;;;;;;;;;;;;;3.10;60.92;101513.44;1796029;79;20306;-72
2021/03/31 05:56:12;;;;;;;;;;;;;;;3.19;60.92;101505.78;1796768;78;20277;-71
2021/03/31 05:58:39;;;;;;;;;;;;;;;3.30;60.73;101511.06;1795820;79;22260;-70
2021/03/31 06:01:07;;;;;;;;;;;;;;;3.40;60.40;101505.95;1776184;79;20886;-73
2021/03/31 06:03:34;;;;;;;;;;;;;;;3.51;60.06;101506.06;1797497;79;20218;-70
2021/03/31 06:06:01;;;;;;;;;;;;;;;3.60;59.65;101505.77;1792976;79;20557;-71
2021/03/31 06:08:29;;;;;;;;;;;;;;;3.68;59.61;101503.77;1799163;79;20214;-70
2021/03/31 06:11:00;;;;;;;;;;;;;;;3.76;59.13;101511.33;1799945;78;22014;-73
2021/03/31 06:13:46;;;;;;;;;;;;;;;3.79;59.00;101505.56;1795757;78;20373;-69
2021/03/31 06:16:27;;;;;;;;;;;;;;;3.91;59.08;101505.60;1846334;76;20262;-71
2021/03/31 06:18:56;;;;;;;;;;;;;;;3.93;58.93;101506.39;1854445;77;20555;-68
2021/03/31 06:21:24;;;;;;;;;;;;;;;4.00;58.76;101500.06;1855333;77;21889;-68
2021/03/31 06:23:59;;;;;;;;;;;;;;;4.05;58.25;101506.43;1838345;77;20399;-68
2021/03/31 06:26:31;;;;;;;;;;;;;;;4.09;58.18;101508.05;1844496;77;20408;-70
2021/03/31 06:29:07;;;;;;;;;;;;;;;4.13;58.07;101497.41;1857765;77;20222;-71
2021/03/31 06:31:44;;;;;;;;;;;;;;;4.21;57.87;101505.00;1851669;77;20407;-71
2021/03/31 06:34:23;;;;;;;;;;;;;;;4.27;57.84;101500.42;1839268;77;22030;-68
2021/03/31 06:36:57;;;;;;;;;;;;;;;4.35;57.71;101496.23;1831647;77;20237;-68
2021/03/31 06:39:30;;;;;;;;;;;;;;;4.42;57.47;101492.47;1841032;77;20212;-68
2021/03/31 06:42:07;;;;;;;;;;;;;;;4.52;57.38;101496.45;1855492;77;20237;-69
2021/03/31 06:50:09;;;;;;;;;;;;;;;4.80;57.13;101495.44;1781190;78;20371;-67
2021/03/31 06:52:57;;;;;;;;;;;;;;;4.87;56.86;101493.00;1786297;79;20222;-67
2021/03/31 06:55:26;;;;;;;;;;;;;;;4.94;56.92;101491.01;1757612;80;20228;-66
2021/03/31 06:57:57;;;;;;;;;;;;;;;5.07;57.02;101485.23;1787214;79;20569;-68
2021/03/31 07:00:30;;;;;;;;;;;;;;;5.23;56.77;101480.25;1829829;78;21963;-68
2021/03/31 07:03:01;;;;;;;;;;;;;;;5.37;56.35;101481.00;1813933;78;20362;-68
2021/03/31 07:05:38;;;;;;;;;;;;;;;5.48;55.96;101474.02;1802282;79;20220;-67
2021/03/31 07:08:15;;;;;;;;;;;;;;;5.55;55.61;101472.86;1800242;79;20489;-66
2021/03/31 07:10:52;;;;;;;;;;;;;;;5.64;55.87;101479.88;1805159;78;20221;-69
2021/03/31 07:13:32;;;;;;;;;;;;;;;5.75;55.35;101473.73;1806629;78;22048;-68
2021/03/31 07:16:03;;;;;;;;;;;;;;;5.80;55.06;101463.53;1793296;79;20395;-71
2021/03/31 07:18:32;;;;;;;;;;;;;;;5.84;55.01;101467.72;1803356;78;20215;-70
2021/03/31 07:21:01;;;;;;;;;;;;;;;5.94;54.47;101469.91;1791235;78;20216;-70
2021/03/31 07:23:29;;;;;;;;;;;;;;;6.04;53.55;101453.32;1790924;80;20236;-70
2021/03/31 07:25:57;;;;;;;;;;;;;;;6.13;53.57;101451.61;1791060;79;23105;-69
2021/03/31 07:28:32;;;;;;;;;;;;;;;6.20;52.17;101441.71;1782094;80;20328;-68
2021/03/31 07:31:00;;;;;;;;;;;;;;;6.23;52.11;101440.25;1801391;78;20279;-69
2021/03/31 07:33:32;;;;;;;;;;;;;;;6.28;51.87;101438.30;1776659;79;20248;-67
2021/03/31 07:35:59;;;;;;;;;;;;;;;6.31;51.71;101435.06;1762550;80;20252;-68
2021/03/31 07:38:26;;;;;;;;;;;;;;;6.39;51.62;101426.85;1760756;79;22065;-68
2021/03/31 07:40:55;;;;;;;;;;;;;;;6.49;51.37;101436.47;1781195;79;20466;-68
2021/03/31 07:43:31;;;;;;;;;;;;;;;6.51;50.19;101433.31;1763320;80;20216;-68
2021/03/31 07:46:04;;;;;;;;;;;;;;;6.54;50.00;101432.70;1720825;82;21120;-68
2021/03/31 07:48:32;;;;;;;;;;;;;;;6.60;49.92;101432.42;1726133;83;20221;-67
2021/03/31 07:51:20;;;;;;;;;;;;;;;6.63;50.21;101427.48;1773477;80;21987;-69
2021/03/31 07:53:49;;;;;;;;;;;;;;;6.68;50.12;101424.66;1779261;80;20473;-68
2021/03/31 07:56:18;;;;;;;;;;;;;;;6.77;50.86;101421.15;1779680;80;20217;-72
2021/03/31 07:59:09;;;;;;;;;;;;;;;6.91;50.23;101430.14;1803837;78;20243;-68
2021/03/31 08:01:50;;;;;;;;;;;;;;;6.94;49.76;101423.42;1800318;79;20214;-68
2021/03/31 08:04:20;;;;;;;;;;;;;;;6.98;49.44;101435.50;1793489;80;22972;-67
2021/03/31 08:06:50;;;;;;;;;;;;;;;7.01;49.78;101423.06;1793739;79;20225;-67
2021/03/31 08:09:21;;;;;;;;;;;;;;;7.05;50.08;101411.97;1793925;80;20491;-67
2021/03/31 08:11:53;;;;;;;;;;;;;;;7.08;49.91;101410.03;1793667;80;20213;-69
2021/03/31 08:14:30;;;;;;;;;;;;;;;7.13;49.84;101414.58;1784175;79;20867;-71
2021/03/31 08:16:59;;;;;;;;;;;;;;;7.16;49.34;101412.30;1778738;79;23444;-70
2021/03/31 08:19:31;;;;;;;;;;;;;;;7.14;49.60;101416.31;1795362;79;20323;-67
2021/03/31 08:22:00;;;;;;;;;;;;;;;7.15;50.01;101411.45;1771814;80;20327;-70
2021/03/31 08:24:43;;;;;;;;;;;;;;;7.20;49.94;101399.84;1797314;80;20298;-68
2021/03/31 08:27:12;;;;;;;;;;;;;;;7.27;50.11;101401.25;1789150;80;20232;-67
2021/03/31 08:29:43;;;;;;;;;;;;;;;7.38;50.69;101402.88;1797406;80;21882;-68
2021/03/31 08:32:12;;;;;;;;;;;;;;;7.53;50.70;101396.88;1797399;80;20490;-72
2021/03/31 08:34:39;;;;;;;;;;;;;;;7.65;50.51;101390.98;1797399;80;20263;-66
2021/03/31 08:37:08;;;;;;;;;;;;;;;7.74;49.68;101393.15;1797532;80;20510;-67
2021/03/31 08:39:35;;;;;;;;;;;;;;;7.80;49.95;101398.53;1797534;79;20232;-66
2021/03/31 08:42:03;;;;;;;;;;;;;;;7.86;50.10;101378.50;1797473;80;22075;-67
2021/03/31 08:44:42;;;;;;;;;;;;;;;7.95;49.69;101379.81;1797296;80;22524;-67
2021/03/31 08:47:15;;;;;;;;;;;;;;;8.03;49.56;101381.11;1797268;78;20208;-68
2021/03/31 08:49:50;;;;;;;;;;;;;;;8.08;49.32;101371.64;1795942;79;20296;-67
2021/03/31 08:52:20;;;;;;;;;;;;;;;8.08;49.20;101372.11;1796712;79;20220;-68
2021/03/31 08:54:50;;;;;;;;;;;;;;;8.09;48.86;101368.08;1791979;80;22067;-68
2021/03/31 08:57:26;;;;;;;;;;;;;;;8.12;48.48;101367.94;1797677;80;21201;-67
2021/03/31 08:59:58;;;;;;;;;;;;;;;8.14;48.40;101367.84;1796411;78;20215;-68
2021/03/31 09:02:31;;;;;;;;;;;;;;;8.17;48.74;101364.58;1766164;80;20641;-68
2021/03/31 09:05:03;;;;;;;;;;;;;;;8.24;48.57;101356.74;1793145;80;20228;-67
2021/03/31 09:07:30;;;;;;;;;;;;;;;8.33;48.39;101354.08;1768157;80;21901;-68
2021/03/31 09:09:59;;;;;;;;;;;;;;;8.43;48.61;101357.94;1789442;80;20259;-68
2021/03/31 09:12:28;;;;;;;;;;;;;;;8.54;48.45;101352.08;1797544;80;20232;-67
2021/03/31 09:14:57;;;;;;;;;;;;;;;8.65;48.23;101345.75;1775057;80;20220;-66
2021/03/31 09:17:28;;;;;;;;;;;;;;;8.76;48.15;101343.83;1797195;80;20212;-67
2021/03/31 09:19:57;;;;;;;;;;;;;;;8.85;48.16;101341.98;1797724;80;22109;-68
2021/03/31 09:22:26;;;;;;;;;;;;;;;9.02;48.51;101343.20;1797527;80;20365;-68
2021/03/31 09:24:56;;;;;;;;;;;;;;;9.20;47.45;101336.49;1782047;80;20291;-67
2021/03/31 09:27:26;;;;;;;;;;;;;;;9.34;47.22;101331.24;1777696;80;20620;-67
2021/03/31 09:29:55;;;;;;;;;;;;;;;9.48;47.03;101325.17;1794346;79;20255;-67
2021/03/31 09:32:35;;;;;;;;;;;;;;;9.58;46.50;101325.84;1796365;80;21880;-67
2021/03/31 09:35:06;;;;;;;;;;;;;;;9.65;46.38;101323.66;1782356;80;20483;-67
2021/03/31 09:37:45;;;;;;;;;;;;;;;9.72;45.83;101324.53;1797796;78;20223;-67
2021/03/31 09:40:28;;;;;;;;;;;;;;;9.82;45.57;101316.05;1795202;79;20218;-70
2021/03/31 09:43:08;;;;;;;;;;;;;;;9.94;45.42;101317.92;1754912;81;20213;-67
2021/03/31 09:45:56;;;;;;;;;;;;;;;10.07;45.33;101311.44;1788853;80;22719;-68
2021/03/31 09:48:35;;;;;;;;;;;;;;;10.14;45.30;101313.61;1779909;79;20384;-67
2021/03/31 09:51:16;;;;;;;;;;;;;;;10.20;44.62;101307.08;1797007;80;20275;-67
2021/03/31 09:54:10;;;;;;;;;;;;;;;10.23;43.88;101304.27;1792704;80;20212;-67
2021/03/31 09:56:47;;;;;;;;;;;;;;;10.25;43.65;101306.36;1797027;80;20209;-68
2021/03/31 09:59:21;;;;;;;;;;;;;;;10.25;44.00;101293.16;1797674;80;22084;-67
2021/03/31 10:01:52;;;;;;;;;;;;;;;10.32;43.31;101297.09;1751699;80;20266;-67
2021/03/31 10:04:27;;;;;;;;;;;;;;;10.33;43.17;101293.53;1777629;80;20221;-67
2021/03/31 10:07:22;;;;;;;;;;;;;;;10.39;42.97;101295.75;1797393;80;21157;-67
2021/03/31 10:10:05;;;;;;;;;;;;;;;10.43;42.48;101291.14;1794868;80;20283;-70
2021/03/31 10:12:35;;;;;;;;;;;;;;;10.44;42.73;101284.91;1796364;80;21928;-68
2021/03/31 10:15:17;;;;;;;;;;;;;;;10.46;42.82;101292.26;1783248;80;20244;-68
2021/03/31 10:17:48;;;;;;;;;;;;;;;10.51;42.69;101291.47;1792721;80;20212;-68
2021/03/31 10:20:19;;;;;;;;;;;;;;;10.52;42.50;101287.44;1781991;80;20216;-67
2021/03/31 10:22:54;;;;;;;;;;;;;;;10.53;42.88;101280.36;1716875;80;20182;-67
2021/03/31 10:25:28;;;;;;;;;;;;;;;10.59;43.10;101273.34;1796100;79;22069;-66
2021/03/31 10:28:04;;;;;;;;;;;;;;;10.75;42.24;101268.75;1792626;80;20428;-67
2021/03/31 10:30:37;;;;;;;;;;;;;;;10.84;42.69;101265.98;1789099;80;20240;-66
2021/03/31 10:33:20;;;;;;;;;;;;;;;10.98;42.72;101261.08;1799679;79;20676;-67
2021/03/31 10:35:57;;;;;;;;;;;;;;;11.17;42.03;101261.54;1776899;80;20212;-67
2021/03/31 10:38:50;;;;;;;;;;;;;;;11.32;41.57;101261.83;1798404;79;21977;-70
2021/03/31 10:47:06;;;;;;;;;;;;;;;11.72;41.19;101259.07;1794339;80;20229;-71
2021/03/31 10:49:43;;;;;;;;;;;;;;;11.77;41.08;101254.28;1767960;80;20220;-70
2021/03/31 10:52:17;;;;;;;;;;;;;;;11.83;41.23;101256.55;1768493;79;23825;-70
2021/03/31 10:54:44;;;;;;;;;;;;;;;11.90;40.92;101251.20;1786894;80;20279;-71
2021/03/31 10:57:13;;;;;;;;;;;;;;;11.97;40.90;101248.48;1808655;79;20236;-68
2021/03/31 10:59:42;;;;;;;;;;;;;;;11.95;40.75;101254.34;1772321;80;20478;-68
2021/03/31 11:02:10;;;;;;;;;;;;;;;11.93;40.41;101251.45;1793631;80;20209;-69
2021/03/31 11:04:37;;;;;;;;;;;;;;;11.96;40.40;101245.92;1797426;80;22498;-67
2021/03/31 11:07:07;;;;;;;;;;;;;;;11.99;39.73;101251.02;1781807;80;20312;-72
2021/03/31 11:09:39;;;;;;;;;;;;;;;11.95;39.51;101249.52;1796107;80;20228;-69
2021/03/31 11:12:09;;;;;;;;;;;;;;;11.88;39.83;101245.17;1791400;79;20516;-68
2021/03/31 11:14:38;;;;;;;;;;;;;;;11.92;39.99;101246.63;1791545;79;20208;-68
2021/03/31 11:17:15;;;;;;;;;;;;;;;11.90;39.88;101237.95;1793603;78;22118;-68
2021/03/31 11:27:45;;;;;;;;;;;;;;;11.82;40.22;101233.67;1757919;78;20266;-70
2021/03/31 11:30:22;;;;;;;;;;;;;;;11.81;39.69;101233.80;1796977;79;22170;-68
2021/03/31 11:33:02;;;;;;;;;;;;;;;11.78;39.93;101225.56;1797901;79;20271;-70
2021/03/31 11:35:38;;;;;;;;;;;;;;;11.74;39.66;101224.08;1795807;80;20229;-69
2021/03/31 11:38:12;;;;;;;;;;;;;;;11.70;39.81;101227.42;1795570;79;20486;-69
2021/03/31 11:40:49;;;;;;;;;;;;;;;11.64;40.07;101218.58;1794462;80;20227;-69
2021/03/31 11:43:18;;;;;;;;;;;;;;;11.61;40.06;101219.29;1795817;80;21881;-68
2021/03/31 11:45:59;;;;;;;;;;;;;;;11.61;40.09;101216.64;1780569;78;20236;-68
2021/03/31 11:48:31;;;;;;;;;;;;;;;11.61;40.38;101211.35;1802327;78;20212;-68
2021/03/31 11:51:11;;;;;;;;;;;;;;;11.62;40.33;101210.39;1799412;79;20307;-68
2021/03/31 11:53:50;;;;;;;;;;;;;;;11.62;40.27;101211.72;1763138;79;20212;-69
2021/03/31 11:56:29;;;;;;;;;;;;;;;11.62;40.17;101207.27;1812653;79;22030;-67
2021/03/31 11:59:02;;;;;;;;;;;;;;;11.61;40.04;101200.29;1792912;79;20243;-67
2021/03/31 12:01:38;;;;;;;;;;;;;;;11.61;40.43;101194.16;1783816;79;20402;-67
2021/03/31 12:04:11;;;;;;;;;;;;;;;11.65;40.78;101194.29;1763210;80;20321;-67
2021/03/31 12:06:51;;;;;;;;;;;;;;;11.68;40.62;101192.77;1742412;80;20208;-68
2021/03/31 12:09:39;;;;;;;;;;;;;;;11.70;40.63;101191.70;1770666;80;21983;-68
2021/03/31 12:12:11;;;;;;;;;;;;;;;11.68;39.91;101188.32;1768325;80;20492;-69
2021/03/31 12:14:48;;;;;;;;;;;;;;;11.69;39.69;101190.49;1783371;80;20219;-68
2021/03/31 12:17:25;;;;;;;;;;;;;;;11.68;40.12;101188.32;1798881;79;20488;-67
2021/03/31 12:20:12;;;;;;;;;;;;;;;11.68;40.33;101181.70;1803013;79;20277;-67
2021/03/31 12:22:45;;;;;;;;;;;;;;;11.70;40.30;101181.59;1754322;80;22825;-66
2021/03/31 12:25:21;;;;;;;;;;;;;;;11.70;39.97;101181.59;1787843;79;20510;-66
2021/03/31 12:27:57;;;;;;;;;;;;;;;11.71;39.91;101172.22;1738247;82;20217;-65
2021/03/31 12:30:29;;;;;;;;;;;;;;;11.73;40.20;101168.13;1795265;79;20476;-64
2021/03/31 12:33:00;;;;;;;;;;;;;;;11.76;40.16;101168.75;1778579;79;20392;-67
2021/03/31 12:35:32;;;;;;;;;;;;;;;11.81;40.06;101163.65;1773061;80;22183;-69
2021/03/31 12:38:04;;;;;;;;;;;;;;;11.83;39.63;101157.77;1775423;80;20437;-72
2021/03/31 12:40:43;;;;;;;;;;;;;;;11.84;39.40;101158.97;1797107;80;20299;-70
2021/03/31 12:43:16;;;;;;;;;;;;;;;11.84;39.67;101154.16;1784056;80;20377;-69
2021/03/31 12:45:51;;;;;;;;;;;;;;;11.89;39.99;101145.42;1754824;81;20276;-67
2021/03/31 12:48:24;;;;;;;;;;;;;;;11.96;39.97;101138.22;1729827;81;22935;-67
2021/03/31 12:51:07;;;;;;;;;;;;;;;12.01;39.43;101135.25;1755361;81;20225;-68
2021/03/31 12:53:42;;;;;;;;;;;;;;;12.02;39.41;101134.29;1753869;82;20218;-68
2021/03/31 12:56:10;;;;;;;;;;;;;;;12.03;39.44;101128.03;1755176;81;21338;-68
2021/03/31 12:58:42;;;;;;;;;;;;;;;12.04;39.34;101123.94;1740054;80;20230;-69
2021/03/31 13:01:23;;;;;;;;;;;;;;;12.06;39.45;101125.63;1786012;80;23068;-68
2021/03/31 13:03:48;;;;;;;;;;;;;;;12.04;39.06;101123.94;1783403;80;20228;-67
2021/03/31 13:06:33;;;;;;;;;;;;;;;12.03;39.38;101116.96;1768572;80;20217;-72
2021/03/31 13:09:07;;;;;;;;;;;;;;;12.01;39.75;101114.91;1782986;80;20393;-67
2021/03/31 13:11:38;;;;;;;;;;;;;;;12.03;39.64;101111.66;1783819;80;20216;-70
2021/03/31 13:17:24;;;;;;;;;;;;;;;12.06;39.89;101103.12;1783507;80;20239;-67
2021/03/31 13:22:58;;;;;;;;;;;;;;;12.13;39.63;101095.94;1746584;82;20393;-66
2021/03/31 13:25:27;;;;;;;;;;;;;;;12.15;39.41;101094.02;1766934;79;20217;-66
2021/03/31 13:28:21;;;;;;;;;;;;;;;12.17;39.51;101095.25;1779628;80;22058;-66
2021/03/31 13:30:48;;;;;;;;;;;;;;;12.17;39.43;101091.28;1775099;80;20270;-67
2021/03/31 13:33:20;;;;;;;;;;;;;;;12.15;39.15;101085.23;1767124;80;20400;-67